sensor_id;sensor_type;location;lat;lon;timestamp;P1;durP1;ratioP1;P2;durP2;ratioP2
11761;SDS011;5938;47.098;15.474;2023-11-21T00:02:33;28.50;;;7.30;;
11761;SDS011;5938;47.098;15.474;2023-11-21T00:06:37;27.53;;;6.83;;
11761;SDS011;5938;47.098;15.474;2023-11-21T00:10:42;27.30;;;6.27;;
11761;SDS011;5938;47.098;15.474;2023-11-21T00:14:45;27.53;;;5.50;;
11761;SDS011;5938;47.098;15.474;2023-11-21T00:18:50;27.03;;;5.50;;
11761;SDS011;5938;47.098;15.474;2023-11-21T00:22:53;31.07;;;8.33;;
11761;SDS011;5938;47.098;15.474;2023-11-21T00:26:57;29.10;;;8.10;;
11761;SDS011;5938;47.098;15.474;2023-11-21T00:31:00;29.80;;;7.23;;
11761;SDS011;5938;47.098;15.474;2023-11-21T00:35:08;28.97;;;7.87;;
11761;SDS011;5938;47.098;15.474;2023-11-21T00:39:11;30.10;;;8.20;;
11761;SDS011;5938;47.098;15.474;2023-11-21T00:43:15;30.83;;;9.00;;
11761;SDS011;5938;47.098;15.474;2023-11-21T00:47:19;31.13;;;9.43;;
11761;SDS011;5938;47.098;15.474;2023-11-21T00:51:24;32.13;;;9.60;;
11761;SDS011;5938;47.098;15.474;2023-11-21T00:55:27;33.00;;;9.27;;
11761;SDS011;5938;47.098;15.474;2023-11-21T00:59:32;32.73;;;8.80;;
11761;SDS011;5938;47.098;15.474;2023-11-21T01:03:39;33.40;;;8.70;;
11761;SDS011;5938;47.098;15.474;2023-11-21T01:07:43;30.23;;;8.70;;
11761;SDS011;5938;47.098;15.474;2023-11-21T01:11:47;32.93;;;9.97;;
11761;SDS011;5938;47.098;15.474;2023-11-21T01:15:50;31.43;;;9.10;;
11761;SDS011;5938;47.098;15.474;2023-11-21T01:19:53;32.43;;;10.37;;
11761;SDS011;5938;47.098;15.474;2023-11-21T01:23:59;31.67;;;9.50;;
11761;SDS011;5938;47.098;15.474;2023-11-21T01:28:02;29.37;;;7.63;;
11761;SDS011;5938;47.098;15.474;2023-11-21T01:32:06;30.03;;;7.83;;
11761;SDS011;5938;47.098;15.474;2023-11-21T01:36:11;32.80;;;8.33;;
11761;SDS011;5938;47.098;15.474;2023-11-21T01:40:17;28.07;;;7.00;;
11761;SDS011;5938;47.098;15.474;2023-11-21T01:44:20;30.50;;;7.50;;
11761;SDS011;5938;47.098;15.474;2023-11-21T01:48:24;34.90;;;8.30;;
11761;SDS011;5938;47.098;15.474;2023-11-21T01:52:28;27.97;;;6.23;;
11761;SDS011;5938;47.098;15.474;2023-11-21T01:56:33;28.90;;;6.83;;
11761;SDS011;5938;47.098;15.474;2023-11-21T02:00:37;30.13;;;6.60;;
11761;SDS011;5938;47.098;15.474;2023-11-21T02:04:41;26.53;;;5.80;;
11761;SDS011;5938;47.098;15.474;2023-11-21T02:08:44;26.73;;;6.33;;
11761;SDS011;5938;47.098;15.474;2023-11-21T02:12:49;27.10;;;6.10;;
11761;SDS011;5938;47.098;15.474;2023-11-21T02:16:53;29.50;;;6.90;;
11761;SDS011;5938;47.098;15.474;2023-11-21T02:20:59;26.20;;;5.77;;
11761;SDS011;5938;47.098;15.474;2023-11-21T02:25:07;27.90;;;6.83;;
11761;SDS011;5938;47.098;15.474;2023-11-21T02:29:11;27.90;;;6.00;;
11761;SDS011;5938;47.098;15.474;2023-11-21T02:33:16;26.97;;;5.87;;
11761;SDS011;5938;47.098;15.474;2023-11-21T02:37:21;28.70;;;5.83;;
11761;SDS011;5938;47.098;15.474;2023-11-21T02:41:26;26.37;;;5.97;;
11761;SDS011;5938;47.098;15.474;2023-11-21T02:45:30;27.10;;;6.10;;
11761;SDS011;5938;47.098;15.474;2023-11-21T02:49:33;26.57;;;5.90;;
11761;SDS011;5938;47.098;15.474;2023-11-21T02:53:37;25.90;;;5.80;;
11761;SDS011;5938;47.098;15.474;2023-11-21T02:57:42;27.63;;;6.03;;
11761;SDS011;5938;47.098;15.474;2023-11-21T03:01:46;25.60;;;5.37;;
11761;SDS011;5938;47.098;15.474;2023-11-21T03:05:51;28.63;;;5.27;;
11761;SDS011;5938;47.098;15.474;2023-11-21T03:09:54;28.70;;;5.70;;
11761;SDS011;5938;47.098;15.474;2023-11-21T03:13:59;25.03;;;5.10;;
11761;SDS011;5938;47.098;15.474;2023-11-21T03:18:04;25.23;;;5.10;;
11761;SDS011;5938;47.098;15.474;2023-11-21T03:22:08;25.57;;;5.20;;
11761;SDS011;5938;47.098;15.474;2023-11-21T03:26:12;24.03;;;4.83;;
11761;SDS011;5938;47.098;15.474;2023-11-21T03:30:17;26.50;;;5.60;;
11761;SDS011;5938;47.098;15.474;2023-11-21T03:34:23;24.60;;;4.80;;
11761;SDS011;5938;47.098;15.474;2023-11-21T03:38:28;26.63;;;5.20;;
11761;SDS011;5938;47.098;15.474;2023-11-21T03:42:32;26.20;;;4.63;;
11761;SDS011;5938;47.098;15.474;2023-11-21T03:46:36;26.60;;;5.10;;
11761;SDS011;5938;47.098;15.474;2023-11-21T03:50:40;26.40;;;4.90;;
11761;SDS011;5938;47.098;15.474;2023-11-21T03:54:44;29.80;;;5.07;;
11761;SDS011;5938;47.098;15.474;2023-11-21T03:58:47;25.90;;;4.50;;
11761;SDS011;5938;47.098;15.474;2023-11-21T04:02:52;25.90;;;4.57;;
11761;SDS011;5938;47.098;15.474;2023-11-21T04:06:56;25.60;;;5.03;;
11761;SDS011;5938;47.098;15.474;2023-11-21T04:10:59;32.07;;;6.70;;
11761;SDS011;5938;47.098;15.474;2023-11-21T04:15:04;27.37;;;5.43;;
11761;SDS011;5938;47.098;15.474;2023-11-21T04:19:11;26.60;;;5.60;;
11761;SDS011;5938;47.098;15.474;2023-11-21T04:23:16;25.07;;;5.20;;
11761;SDS011;5938;47.098;15.474;2023-11-21T04:27:19;26.37;;;4.70;;
11761;SDS011;5938;47.098;15.474;2023-11-21T04:31:23;27.03;;;6.20;;
11761;SDS011;5938;47.098;15.474;2023-11-21T04:35:29;24.90;;;4.87;;
11761;SDS011;5938;47.098;15.474;2023-11-21T04:39:33;25.70;;;5.10;;
11761;SDS011;5938;47.098;15.474;2023-11-21T04:43:36;25.83;;;5.17;;
11761;SDS011;5938;47.098;15.474;2023-11-21T04:47:40;27.47;;;5.30;;
11761;SDS011;5938;47.098;15.474;2023-11-21T04:51:46;25.57;;;4.53;;
11761;SDS011;5938;47.098;15.474;2023-11-21T04:55:49;24.50;;;4.67;;
11761;SDS011;5938;47.098;15.474;2023-11-21T04:59:53;26.07;;;5.50;;
11761;SDS011;5938;47.098;15.474;2023-11-21T05:03:57;25.77;;;5.13;;
11761;SDS011;5938;47.098;15.474;2023-11-21T05:08:03;25.67;;;4.40;;
11761;SDS011;5938;47.098;15.474;2023-11-21T05:12:08;24.87;;;4.70;;
11761;SDS011;5938;47.098;15.474;2023-11-21T05:16:11;26.10;;;4.73;;
11761;SDS011;5938;47.098;15.474;2023-11-21T05:20:16;25.47;;;5.47;;
11761;SDS011;5938;47.098;15.474;2023-11-21T05:24:24;25.33;;;4.87;;
11761;SDS011;5938;47.098;15.474;2023-11-21T05:28:27;24.17;;;3.97;;
11761;SDS011;5938;47.098;15.474;2023-11-21T05:32:30;25.47;;;5.03;;
11761;SDS011;5938;47.098;15.474;2023-11-21T05:36:35;26.30;;;4.93;;
11761;SDS011;5938;47.098;15.474;2023-11-21T05:40:40;26.90;;;4.77;;
11761;SDS011;5938;47.098;15.474;2023-11-21T05:44:45;24.77;;;4.90;;
11761;SDS011;5938;47.098;15.474;2023-11-21T05:48:48;25.67;;;5.67;;
11761;SDS011;5938;47.098;15.474;2023-11-21T05:52:52;25.90;;;5.70;;
11761;SDS011;5938;47.098;15.474;2023-11-21T05:56:57;27.90;;;6.20;;
11761;SDS011;5938;47.098;15.474;2023-11-21T06:01:00;28.13;;;6.40;;
11761;SDS011;5938;47.098;15.474;2023-11-21T06:05:10;26.43;;;5.67;;
11761;SDS011;5938;47.098;15.474;2023-11-21T06:09:14;26.57;;;6.67;;
11761;SDS011;5938;47.098;15.474;2023-11-21T06:13:19;27.50;;;7.30;;
11761;SDS011;5938;47.098;15.474;2023-11-21T06:17:26;27.40;;;5.87;;
11761;SDS011;5938;47.098;15.474;2023-11-21T06:21:30;28.37;;;6.30;;
11761;SDS011;5938;47.098;15.474;2023-11-21T06:25:35;30.57;;;6.40;;
11761;SDS011;5938;47.098;15.474;2023-11-21T06:29:40;27.83;;;7.57;;
11761;SDS011;5938;47.098;15.474;2023-11-21T06:33:44;30.23;;;9.00;;
11761;SDS011;5938;47.098;15.474;2023-11-21T06:37:48;31.30;;;10.80;;
11761;SDS011;5938;47.098;15.474;2023-11-21T06:41:53;33.53;;;12.00;;
11761;SDS011;5938;47.098;15.474;2023-11-21T06:45:58;32.40;;;10.60;;
11761;SDS011;5938;47.098;15.474;2023-11-21T06:50:02;37.67;;;13.50;;
11761;SDS011;5938;47.098;15.474;2023-11-21T06:54:06;37.47;;;12.43;;
11761;SDS011;5938;47.098;15.474;2023-11-21T06:58:11;41.07;;;15.37;;
11761;SDS011;5938;47.098;15.474;2023-11-21T07:02:18;40.03;;;13.57;;
11761;SDS011;5938;47.098;15.474;2023-11-21T07:06:21;38.30;;;14.80;;
11761;SDS011;5938;47.098;15.474;2023-11-21T07:10:25;37.20;;;13.80;;
11761;SDS011;5938;47.098;15.474;2023-11-21T07:14:28;36.97;;;13.63;;
11761;SDS011;5938;47.098;15.474;2023-11-21T07:18:33;34.30;;;13.23;;
11761;SDS011;5938;47.098;15.474;2023-11-21T07:22:37;39.97;;;11.07;;
11761;SDS011;5938;47.098;15.474;2023-11-21T07:26:40;35.00;;;12.70;;
11761;SDS011;5938;47.098;15.474;2023-11-21T07:30:45;36.47;;;13.27;;
11761;SDS011;5938;47.098;15.474;2023-11-21T07:34:49;37.97;;;12.97;;
11761;SDS011;5938;47.098;15.474;2023-11-21T07:38:53;39.27;;;15.80;;
11761;SDS011;5938;47.098;15.474;2023-11-21T07:42:57;37.97;;;13.67;;
11761;SDS011;5938;47.098;15.474;2023-11-21T07:47:01;43.50;;;19.83;;
11761;SDS011;5938;47.098;15.474;2023-11-21T07:51:08;39.27;;;17.53;;
11761;SDS011;5938;47.098;15.474;2023-11-21T07:55:12;42.80;;;16.30;;
11761;SDS011;5938;47.098;15.474;2023-11-21T07:59:16;43.07;;;12.83;;
11761;SDS011;5938;47.098;15.474;2023-11-21T08:03:20;33.60;;;11.13;;
11761;SDS011;5938;47.098;15.474;2023-11-21T08:07:25;32.77;;;13.17;;
11761;SDS011;5938;47.098;15.474;2023-11-21T08:11:28;37.00;;;13.00;;
11761;SDS011;5938;47.098;15.474;2023-11-21T08:15:34;31.30;;;11.87;;
11761;SDS011;5938;47.098;15.474;2023-11-21T08:19:38;33.60;;;12.50;;
11761;SDS011;5938;47.098;15.474;2023-11-21T08:23:43;33.57;;;11.50;;
11761;SDS011;5938;47.098;15.474;2023-11-21T08:27:46;32.90;;;12.10;;
11761;SDS011;5938;47.098;15.474;2023-11-21T08:31:50;34.53;;;11.67;;
11761;SDS011;5938;47.098;15.474;2023-11-21T08:35:55;38.07;;;11.33;;
11761;SDS011;5938;47.098;15.474;2023-11-21T08:40:01;30.57;;;10.33;;
11761;SDS011;5938;47.098;15.474;2023-11-21T08:44:09;30.27;;;10.50;;
11761;SDS011;5938;47.098;15.474;2023-11-21T08:48:13;29.60;;;9.10;;
11761;SDS011;5938;47.098;15.474;2023-11-21T08:52:17;27.83;;;8.60;;
11761;SDS011;5938;47.098;15.474;2023-11-21T08:56:23;31.70;;;9.80;;
11761;SDS011;5938;47.098;15.474;2023-11-21T09:00:26;28.73;;;8.03;;
11761;SDS011;5938;47.098;15.474;2023-11-21T09:04:30;28.10;;;8.90;;
11761;SDS011;5938;47.098;15.474;2023-11-21T09:08:33;28.70;;;8.60;;
11761;SDS011;5938;47.098;15.474;2023-11-21T09:12:38;27.93;;;8.70;;
11761;SDS011;5938;47.098;15.474;2023-11-21T09:16:42;29.83;;;9.30;;
11761;SDS011;5938;47.098;15.474;2023-11-21T09:20:45;27.03;;;7.30;;
11761;SDS011;5938;47.098;15.474;2023-11-21T09:24:49;28.53;;;7.63;;
11761;SDS011;5938;47.098;15.474;2023-11-21T09:28:54;27.73;;;7.87;;
11761;SDS011;5938;47.098;15.474;2023-11-21T09:32:58;29.10;;;8.77;;
11761;SDS011;5938;47.098;15.474;2023-11-21T09:37:03;28.07;;;7.70;;
11761;SDS011;5938;47.098;15.474;2023-11-21T09:41:11;27.90;;;7.93;;
11761;SDS011;5938;47.098;15.474;2023-11-21T09:45:24;27.60;;;8.43;;
11761;SDS011;5938;47.098;15.474;2023-11-21T09:49:30;34.27;;;8.60;;
11761;SDS011;5938;47.098;15.474;2023-11-21T09:53:37;28.37;;;7.37;;
11761;SDS011;5938;47.098;15.474;2023-11-21T09:57:40;27.70;;;7.20;;
11761;SDS011;5938;47.098;15.474;2023-11-21T10:01:46;24.60;;;6.53;;
11761;SDS011;5938;47.098;15.474;2023-11-21T10:05:52;27.20;;;6.70;;
11761;SDS011;5938;47.098;15.474;2023-11-21T10:10:01;28.33;;;6.70;;
11761;SDS011;5938;47.098;15.474;2023-11-21T10:14:09;26.27;;;5.90;;
11761;SDS011;5938;47.098;15.474;2023-11-21T10:18:16;28.23;;;7.60;;
11761;SDS011;5938;47.098;15.474;2023-11-21T10:22:20;31.23;;;7.30;;
11761;SDS011;5938;47.098;15.474;2023-11-21T10:26:25;30.13;;;7.80;;
11761;SDS011;5938;47.098;15.474;2023-11-21T10:30:33;29.80;;;8.57;;
11761;SDS011;5938;47.098;15.474;2023-11-21T10:34:40;30.53;;;8.60;;
11761;SDS011;5938;47.098;15.474;2023-11-21T10:38:44;27.20;;;6.50;;
11761;SDS011;5938;47.098;15.474;2023-11-21T10:42:52;26.30;;;6.90;;
11761;SDS011;5938;47.098;15.474;2023-11-21T10:46:55;27.00;;;6.60;;
11761;SDS011;5938;47.098;15.474;2023-11-21T10:51:01;28.83;;;6.27;;
11761;SDS011;5938;47.098;15.474;2023-11-21T10:55:16;23.93;;;6.00;;
11761;SDS011;5938;47.098;15.474;2023-11-21T10:59:23;26.90;;;7.23;;
11761;SDS011;5938;47.098;15.474;2023-11-21T11:03:28;26.50;;;6.57;;
11761;SDS011;5938;47.098;15.474;2023-11-21T11:07:35;26.30;;;5.80;;
11761;SDS011;5938;47.098;15.474;2023-11-21T11:11:39;24.37;;;7.00;;
11761;SDS011;5938;47.098;15.474;2023-11-21T11:15:47;24.13;;;5.97;;
11761;SDS011;5938;47.098;15.474;2023-11-21T11:19:50;24.57;;;5.97;;
11761;SDS011;5938;47.098;15.474;2023-11-21T11:24:01;25.17;;;6.07;;
11761;SDS011;5938;47.098;15.474;2023-11-21T11:28:21;23.17;;;6.27;;
11761;SDS011;5938;47.098;15.474;2023-11-21T11:32:33;24.30;;;6.50;;
11761;SDS011;5938;47.098;15.474;2023-11-21T11:36:47;26.93;;;7.53;;
11761;SDS011;5938;47.098;15.474;2023-11-21T11:40:58;25.10;;;6.83;;
11761;SDS011;5938;47.098;15.474;2023-11-21T11:45:16;25.03;;;7.60;;
11761;SDS011;5938;47.098;15.474;2023-11-21T11:49:25;24.50;;;7.53;;
11761;SDS011;5938;47.098;15.474;2023-11-21T11:53:37;31.30;;;8.00;;
11761;SDS011;5938;47.098;15.474;2023-11-21T11:57:44;26.47;;;8.20;;
11761;SDS011;5938;47.098;15.474;2023-11-21T12:01:49;27.10;;;8.60;;
11761;SDS011;5938;47.098;15.474;2023-11-21T12:05:53;26.93;;;7.70;;
11761;SDS011;5938;47.098;15.474;2023-11-21T12:10:02;27.53;;;7.53;;
11761;SDS011;5938;47.098;15.474;2023-11-21T12:14:08;26.47;;;7.50;;
11761;SDS011;5938;47.098;15.474;2023-11-21T12:18:12;26.80;;;8.17;;
11761;SDS011;5938;47.098;15.474;2023-11-21T12:22:16;25.63;;;7.90;;
11761;SDS011;5938;47.098;15.474;2023-11-21T12:26:23;26.30;;;7.97;;
11761;SDS011;5938;47.098;15.474;2023-11-21T12:30:29;28.40;;;8.60;;
11761;SDS011;5938;47.098;15.474;2023-11-21T12:34:34;28.83;;;7.60;;
11761;SDS011;5938;47.098;15.474;2023-11-21T12:38:40;26.93;;;7.93;;
11761;SDS011;5938;47.098;15.474;2023-11-21T12:42:44;25.47;;;8.30;;
11761;SDS011;5938;47.098;15.474;2023-11-21T12:46:52;26.30;;;8.07;;
11761;SDS011;5938;47.098;15.474;2023-11-21T12:50:56;25.20;;;8.13;;
11761;SDS011;5938;47.098;15.474;2023-11-21T12:55:02;28.40;;;9.17;;
11761;SDS011;5938;47.098;15.474;2023-11-21T12:59:09;24.50;;;8.00;;
11761;SDS011;5938;47.098;15.474;2023-11-21T13:03:18;26.53;;;8.80;;
11761;SDS011;5938;47.098;15.474;2023-11-21T13:07:27;30.40;;;8.70;;
11761;SDS011;5938;47.098;15.474;2023-11-21T13:11:33;28.60;;;9.60;;
11761;SDS011;5938;47.098;15.474;2023-11-21T13:15:38;27.20;;;9.83;;
11761;SDS011;5938;47.098;15.474;2023-11-21T13:19:44;29.57;;;9.20;;
11761;SDS011;5938;47.098;15.474;2023-11-21T13:23:48;28.70;;;9.20;;
11761;SDS011;5938;47.098;15.474;2023-11-21T13:27:54;27.50;;;8.97;;
11761;SDS011;5938;47.098;15.474;2023-11-21T13:31:58;26.60;;;9.40;;
11761;SDS011;5938;47.098;15.474;2023-11-21T13:36:07;28.50;;;10.43;;
11761;SDS011;5938;47.098;15.474;2023-11-21T13:40:12;32.10;;;11.60;;
11761;SDS011;5938;47.098;15.474;2023-11-21T13:44:18;30.10;;;12.33;;
11761;SDS011;5938;47.098;15.474;2023-11-21T13:48:28;27.80;;;10.87;;
11761;SDS011;5938;47.098;15.474;2023-11-21T13:52:43;29.30;;;10.90;;
11761;SDS011;5938;47.098;15.474;2023-11-21T13:56:47;28.67;;;10.60;;
11761;SDS011;5938;47.098;15.474;2023-11-21T14:00:52;27.73;;;10.30;;
11761;SDS011;5938;47.098;15.474;2023-11-21T14:04:58;26.20;;;9.97;;
11761;SDS011;5938;47.098;15.474;2023-11-21T14:09:08;27.03;;;9.77;;
11761;SDS011;5938;47.098;15.474;2023-11-21T14:13:15;28.47;;;9.53;;
11761;SDS011;5938;47.098;15.474;2023-11-21T14:17:19;29.53;;;8.77;;
11761;SDS011;5938;47.098;15.474;2023-11-21T14:21:23;27.87;;;10.33;;
11761;SDS011;5938;47.098;15.474;2023-11-21T14:25:28;26.70;;;8.93;;
11761;SDS011;5938;47.098;15.474;2023-11-21T14:29:32;27.30;;;8.53;;
11761;SDS011;5938;47.098;15.474;2023-11-21T14:33:40;26.20;;;8.83;;
11761;SDS011;5938;47.098;15.474;2023-11-21T14:37:43;27.37;;;8.20;;
11761;SDS011;5938;47.098;15.474;2023-11-21T14:41:49;29.37;;;8.57;;
11761;SDS011;5938;47.098;15.474;2023-11-21T14:45:54;27.17;;;8.50;;
11761;SDS011;5938;47.098;15.474;2023-11-21T14:50:00;26.83;;;8.47;;
11761;SDS011;5938;47.098;15.474;2023-11-21T14:54:26;27.50;;;7.93;;
11761;SDS011;5938;47.098;15.474;2023-11-21T14:58:43;30.03;;;9.53;;
11761;SDS011;5938;47.098;15.474;2023-11-21T15:02:48;28.53;;;8.93;;
11761;SDS011;5938;47.098;15.474;2023-11-21T15:06:51;29.60;;;9.90;;
11761;SDS011;5938;47.098;15.474;2023-11-21T15:10:57;32.17;;;9.77;;
11761;SDS011;5938;47.098;15.474;2023-11-21T15:15:02;30.50;;;10.80;;
11761;SDS011;5938;47.098;15.474;2023-11-21T15:19:09;34.97;;;11.70;;
11761;SDS011;5938;47.098;15.474;2023-11-21T15:23:19;36.10;;;9.40;;
11761;SDS011;5938;47.098;15.474;2023-11-21T15:27:22;31.93;;;10.53;;
11761;SDS011;5938;47.098;15.474;2023-11-21T15:31:28;30.70;;;10.43;;
11761;SDS011;5938;47.098;15.474;2023-11-21T15:35:32;31.90;;;10.07;;
11761;SDS011;5938;47.098;15.474;2023-11-21T15:39:39;35.63;;;11.07;;
11761;SDS011;5938;47.098;15.474;2023-11-21T15:43:43;32.43;;;11.47;;
11761;SDS011;5938;47.098;15.474;2023-11-21T15:47:48;34.17;;;13.23;;
11761;SDS011;5938;47.098;15.474;2023-11-21T15:51:51;32.83;;;11.00;;
11761;SDS011;5938;47.098;15.474;2023-11-21T15:55:57;30.80;;;10.10;;
11761;SDS011;5938;47.098;15.474;2023-11-21T16:00:00;35.03;;;12.70;;
11761;SDS011;5938;47.098;15.474;2023-11-21T16:04:11;37.80;;;12.30;;
11761;SDS011;5938;47.098;15.474;2023-11-21T16:08:18;34.10;;;12.27;;
11761;SDS011;5938;47.098;15.474;2023-11-21T16:12:23;36.57;;;13.27;;
11761;SDS011;5938;47.098;15.474;2023-11-21T16:16:26;33.03;;;11.13;;
11761;SDS011;5938;47.098;15.474;2023-11-21T16:20:32;36.70;;;12.20;;
11761;SDS011;5938;47.098;15.474;2023-11-21T16:24:36;34.53;;;12.60;;
11761;SDS011;5938;47.098;15.474;2023-11-21T16:28:40;43.93;;;14.00;;
11761;SDS011;5938;47.098;15.474;2023-11-21T16:32:44;36.87;;;14.67;;
11761;SDS011;5938;47.098;15.474;2023-11-21T16:36:49;37.27;;;12.87;;
11761;SDS011;5938;47.098;15.474;2023-11-21T16:40:52;37.23;;;13.83;;
11761;SDS011;5938;47.098;15.474;2023-11-21T16:44:55;34.87;;;13.70;;
11761;SDS011;5938;47.098;15.474;2023-11-21T16:48:59;35.90;;;12.17;;
11761;SDS011;5938;47.098;15.474;2023-11-21T16:53:04;39.00;;;13.30;;
11761;SDS011;5938;47.098;15.474;2023-11-21T16:57:09;37.30;;;14.57;;
11761;SDS011;5938;47.098;15.474;2023-11-21T17:01:13;35.67;;;13.50;;
11761;SDS011;5938;47.098;15.474;2023-11-21T17:05:19;36.20;;;15.20;;
11761;SDS011;5938;47.098;15.474;2023-11-21T17:09:25;41.67;;;15.03;;
11761;SDS011;5938;47.098;15.474;2023-11-21T17:13:28;37.40;;;15.63;;
11761;SDS011;5938;47.098;15.474;2023-11-21T17:17:33;41.00;;;16.43;;
11761;SDS011;5938;47.098;15.474;2023-11-21T17:21:37;43.70;;;16.23;;
11761;SDS011;5938;47.098;15.474;2023-11-21T17:25:42;40.10;;;16.33;;
11761;SDS011;5938;47.098;15.474;2023-11-21T17:29:45;40.43;;;15.90;;
11761;SDS011;5938;47.098;15.474;2023-11-21T17:33:53;43.73;;;16.10;;
11761;SDS011;5938;47.098;15.474;2023-11-21T17:38:03;43.13;;;16.80;;
11761;SDS011;5938;47.098;15.474;2023-11-21T17:42:25;44.53;;;16.97;;
11761;SDS011;5938;47.098;15.474;2023-11-21T17:46:35;35.93;;;15.67;;
11761;SDS011;5938;47.098;15.474;2023-11-21T17:50:51;39.20;;;16.07;;
11761;SDS011;5938;47.098;15.474;2023-11-21T17:54:57;41.30;;;17.50;;
11761;SDS011;5938;47.098;15.474;2023-11-21T17:59:02;41.47;;;19.10;;
11761;SDS011;5938;47.098;15.474;2023-11-21T18:03:07;48.50;;;20.67;;
11761;SDS011;5938;47.098;15.474;2023-11-21T18:07:11;41.53;;;19.60;;
11761;SDS011;5938;47.098;15.474;2023-11-21T18:11:18;45.27;;;19.87;;
11761;SDS011;5938;47.098;15.474;2023-11-21T18:15:23;55.37;;;23.80;;
11761;SDS011;5938;47.098;15.474;2023-11-21T18:19:27;47.17;;;19.73;;
11761;SDS011;5938;47.098;15.474;2023-11-21T18:23:31;40.00;;;18.00;;
11761;SDS011;5938;47.098;15.474;2023-11-21T18:27:35;44.13;;;18.80;;
11761;SDS011;5938;47.098;15.474;2023-11-21T18:31:40;43.07;;;18.80;;
11761;SDS011;5938;47.098;15.474;2023-11-21T18:35:44;45.67;;;20.40;;
11761;SDS011;5938;47.098;15.474;2023-11-21T18:39:48;41.40;;;18.37;;
11761;SDS011;5938;47.098;15.474;2023-11-21T18:43:52;44.47;;;19.43;;
11761;SDS011;5938;47.098;15.474;2023-11-21T18:47:58;41.50;;;17.60;;
11761;SDS011;5938;47.098;15.474;2023-11-21T18:52:05;42.33;;;17.67;;
11761;SDS011;5938;47.098;15.474;2023-11-21T18:56:18;38.17;;;15.50;;
11761;SDS011;5938;47.098;15.474;2023-11-21T19:00:26;44.40;;;17.43;;
11761;SDS011;5938;47.098;15.474;2023-11-21T19:04:32;44.07;;;18.17;;
11761;SDS011;5938;47.098;15.474;2023-11-21T19:08:36;42.70;;;18.10;;
11761;SDS011;5938;47.098;15.474;2023-11-21T19:12:40;45.70;;;18.53;;
11761;SDS011;5938;47.098;15.474;2023-11-21T19:16:45;52.80;;;20.10;;
11761;SDS011;5938;47.098;15.474;2023-11-21T19:20:52;44.17;;;18.60;;
11761;SDS011;5938;47.098;15.474;2023-11-21T19:24:57;44.17;;;18.47;;
11761;SDS011;5938;47.098;15.474;2023-11-21T19:29:00;47.87;;;19.80;;
11761;SDS011;5938;47.098;15.474;2023-11-21T19:33:08;46.17;;;19.23;;
11761;SDS011;5938;47.098;15.474;2023-11-21T19:37:14;46.50;;;19.07;;
11761;SDS011;5938;47.098;15.474;2023-11-21T19:41:19;51.50;;;20.40;;
11761;SDS011;5938;47.098;15.474;2023-11-21T19:45:24;46.87;;;20.50;;
11761;SDS011;5938;47.098;15.474;2023-11-21T19:49:32;51.20;;;23.53;;
11761;SDS011;5938;47.098;15.474;2023-11-21T19:53:38;46.10;;;21.80;;
11761;SDS011;5938;47.098;15.474;2023-11-21T19:57:42;51.03;;;22.80;;
11761;SDS011;5938;47.098;15.474;2023-11-21T20:01:46;46.23;;;19.77;;
11761;SDS011;5938;47.098;15.474;2023-11-21T20:05:49;50.97;;;22.20;;
11761;SDS011;5938;47.098;15.474;2023-11-21T20:09:55;47.53;;;20.97;;
11761;SDS011;5938;47.098;15.474;2023-11-21T20:13:58;52.00;;;22.60;;
11761;SDS011;5938;47.098;15.474;2023-11-21T20:18:02;47.40;;;22.43;;
11761;SDS011;5938;47.098;15.474;2023-11-21T20:22:08;46.77;;;20.67;;
11761;SDS011;5938;47.098;15.474;2023-11-21T20:26:19;47.50;;;21.70;;
11761;SDS011;5938;47.098;15.474;2023-11-21T20:30:23;44.80;;;19.53;;
11761;SDS011;5938;47.098;15.474;2023-11-21T20:34:30;51.40;;;20.13;;
11761;SDS011;5938;47.098;15.474;2023-11-21T20:38:38;46.77;;;19.90;;
11761;SDS011;5938;47.098;15.474;2023-11-21T20:42:45;42.20;;;19.03;;
11761;SDS011;5938;47.098;15.474;2023-11-21T20:46:49;51.97;;;21.73;;
11761;SDS011;5938;47.098;15.474;2023-11-21T20:51:07;45.83;;;20.87;;
11761;SDS011;5938;47.098;15.474;2023-11-21T20:55:13;53.50;;;21.33;;
11761;SDS011;5938;47.098;15.474;2023-11-21T20:59:19;47.23;;;18.83;;
11761;SDS011;5938;47.098;15.474;2023-11-21T21:03:25;45.80;;;20.33;;
11761;SDS011;5938;47.098;15.474;2023-11-21T21:07:29;50.47;;;20.80;;
11761;SDS011;5938;47.098;15.474;2023-11-21T21:11:33;52.80;;;21.50;;
11761;SDS011;5938;47.098;15.474;2023-11-21T21:15:43;51.13;;;23.87;;
11761;SDS011;5938;47.098;15.474;2023-11-21T21:19:53;49.43;;;22.00;;
11761;SDS011;5938;47.098;15.474;2023-11-21T21:23:57;45.70;;;18.37;;
11761;SDS011;5938;47.098;15.474;2023-11-21T21:28:01;42.27;;;17.27;;
11761;SDS011;5938;47.098;15.474;2023-11-21T21:32:09;49.77;;;19.60;;
11761;SDS011;5938;47.098;15.474;2023-11-21T21:36:13;44.03;;;18.63;;
11761;SDS011;5938;47.098;15.474;2023-11-21T21:40:17;49.80;;;21.70;;
11761;SDS011;5938;47.098;15.474;2023-11-21T21:44:20;58.80;;;22.23;;
11761;SDS011;5938;47.098;15.474;2023-11-21T21:48:27;46.13;;;20.17;;
11761;SDS011;5938;47.098;15.474;2023-11-21T21:52:34;52.33;;;21.63;;
11761;SDS011;5938;47.098;15.474;2023-11-21T21:56:42;43.70;;;19.67;;
11761;SDS011;5938;47.098;15.474;2023-11-21T22:00:47;44.93;;;20.33;;
11761;SDS011;5938;47.098;15.474;2023-11-21T22:04:52;47.10;;;19.27;;
11761;SDS011;5938;47.098;15.474;2023-11-21T22:08:57;44.93;;;18.30;;
11761;SDS011;5938;47.098;15.474;2023-11-21T22:13:01;44.53;;;18.37;;
11761;SDS011;5938;47.098;15.474;2023-11-21T22:17:07;49.57;;;17.20;;
11761;SDS011;5938;47.098;15.474;2023-11-21T22:21:14;45.60;;;18.60;;
11761;SDS011;5938;47.098;15.474;2023-11-21T22:25:19;43.00;;;17.67;;
11761;SDS011;5938;47.098;15.474;2023-11-21T22:29:22;41.80;;;16.80;;
11761;SDS011;5938;47.098;15.474;2023-11-21T22:33:26;47.10;;;17.17;;
11761;SDS011;5938;47.098;15.474;2023-11-21T22:37:31;40.93;;;14.97;;
11761;SDS011;5938;47.098;15.474;2023-11-21T22:41:35;42.23;;;14.97;;
11761;SDS011;5938;47.098;15.474;2023-11-21T22:45:38;41.30;;;15.90;;
11761;SDS011;5938;47.098;15.474;2023-11-21T22:49:41;39.47;;;13.17;;
11761;SDS011;5938;47.098;15.474;2023-11-21T22:53:46;39.43;;;14.20;;
11761;SDS011;5938;47.098;15.474;2023-11-21T22:57:49;38.60;;;13.43;;
11761;SDS011;5938;47.098;15.474;2023-11-21T23:01:53;37.40;;;12.77;;
11761;SDS011;5938;47.098;15.474;2023-11-21T23:05:56;39.60;;;13.77;;
11761;SDS011;5938;47.098;15.474;2023-11-21T23:10:01;35.40;;;12.87;;
11761;SDS011;5938;47.098;15.474;2023-11-21T23:14:08;38.70;;;13.17;;
11761;SDS011;5938;47.098;15.474;2023-11-21T23:18:13;37.87;;;13.00;;
11761;SDS011;5938;47.098;15.474;2023-11-21T23:22:16;38.90;;;13.03;;
11761;SDS011;5938;47.098;15.474;2023-11-21T23:26:21;41.80;;;13.70;;
11761;SDS011;5938;47.098;15.474;2023-11-21T23:30:24;39.80;;;12.93;;
11761;SDS011;5938;47.098;15.474;2023-11-21T23:34:29;43.80;;;12.63;;
11761;SDS011;5938;47.098;15.474;2023-11-21T23:38:32;47.13;;;14.30;;
11761;SDS011;5938;47.098;15.474;2023-11-21T23:42:37;40.00;;;13.33;;
11761;SDS011;5938;47.098;15.474;2023-11-21T23:46:41;41.43;;;13.07;;
11761;SDS011;5938;47.098;15.474;2023-11-21T23:50:44;39.43;;;13.50;;
11761;SDS011;5938;47.098;15.474;2023-11-21T23:54:47;45.13;;;13.67;;
11761;SDS011;5938;47.098;15.474;2023-11-21T23:58:52;40.80;;;13.90;;
